Latest Weather Observations for Cape Flattery

IDQ60801

Issued at 4:32 pm EST Friday 27 May 2016 (issued every 30 minutes, with the page automatically refreshed every 10 minutes)

About weather observations | Map of weather stations | Latest weather observations for QLD | Other Formats
Station Details ID: 031213 Name: CAPE FLATTERY Lat: -14.97 Lon: 145.31 Height: 18.5 m
Data from the previous 72 hours. | See also: Recent months at Cape Flattery
Date/Time
EST
Temp
°C
App
Temp
°C
Dew
Point
Rel
Hum
%
Delta-T
°C
Wind Press
QNH
hPa
Press
MSL
hPa
Rain
since 9 am
mm
Dir
 
Spd
km/h
Gust
km/h
Spd
kts
Gust
kts
27/04:30pm 28.0 31.0 23.4 76 3.2 ESE 13 15 7 8 1012.0 1011.9 0.0
27/04:00pm 28.3 31.2 23.2 74 3.5 E 13 17 7 9 1012.1 1012.0 0.0
27/03:30pm 28.6 31.8 23.7 75 3.4 ESE 13 17 7 9 1012.1 1012.0 0.0
27/03:00pm 28.4 31.3 23.8 76 3.2 SE 15 20 8 11 1012.4 1012.3 0.0
27/02:30pm 28.7 31.8 23.6 74 3.5 SE 13 20 7 11 1012.5 1012.4 0.0
27/02:00pm 28.4 30.7 23.5 75 3.4 SE 17 20 9 11 1012.8 1012.7 0.0
27/01:30pm 27.2 29.9 23.4 80 2.6 SSE 15 20 8 11 1013.1 1013.0 0.0
27/01:00pm 28.6 32.5 24.2 77 3.1 SE 11 17 6 9 1013.5 1013.4 0.0
27/12:30pm 28.6 32.6 24.4 78 2.9 SE 11 17 6 9 1014.0 1013.9 0.0
27/12:00pm 27.9 31.3 24.1 80 2.6 SSE 13 17 7 9 1014.4 1014.3 0.0
27/11:30am 28.4 32.1 24.6 80 2.6 SSE 13 20 7 11 1014.9 1014.8 0.0
27/11:00am 27.3 30.3 24.0 82 2.3 SSE 15 20 8 11 1015.2 1015.1 0.0
27/10:30am 27.2 30.8 24.3 84 2.0 SSE 13 19 7 10 1015.5 1015.4 0.0
27/10:00am 27.9 31.8 25.5 87 1.7 S 15 20 8 11 1015.7 1015.6 0.0
27/09:30am 26.7 29.7 24.7 89 1.4 SSE 17 20 9 11 1015.7 1015.6 0.0
27/09:00am 26.3 29.7 24.7 91 1.1 SSE 15 20 8 11 1015.6 1015.5 0.0
27/08:30am 25.9 29.4 24.9 94 0.7 SSE 15 19 8 10 1015.4 1015.3 0.0
27/08:00am 25.6 29.0 24.7 95 0.6 SSE 15 20 8 11 1015.2 1015.1 0.0
27/07:30am 25.1 29.6 24.6 97 0.3 S 9 11 5 6 1015.0 1014.9 0.0
27/07:00am 24.7 29.1 24.4 98 0.2 SSE 9 13 5 7 1014.8 1014.7 0.0
27/06:30am 24.4 28.6 24.1 98 0.2 SSE 9 13 5 7 1014.5 1014.4 0.0
27/06:00am 23.8 28.0 23.5 98 0.2 SE 7 11 4 6 1014.3 1014.2 0.0
27/05:30am 23.4 27.4 23.1 98 0.2 SSE 7 9 4 5 1013.9 1013.8 0.0
27/05:00am 23.4 27.3 22.9 97 0.3 SE 7 7 4 4 1013.9 1013.8 0.0
27/04:30am 23.5 27.6 23.0 97 0.3 SE 6 7 3 4 1013.8 1013.7 0.0
27/04:00am 23.6 27.9 23.3 98 0.2 SE 6 7 3 4 1013.7 1013.6 0.0
27/03:30am 23.3 27.4 23.0 98 0.2 SE 6 7 3 4 1013.6 1013.5 0.0
27/03:00am 23.3 27.1 22.8 97 0.3 SE 7 7 4 4 1013.5 1013.4 0.0
27/02:30am 23.3 27.1 22.8 97 0.3 ESE 7 9 4 5 1013.5 1013.4 0.0
27/02:00am 23.6 27.6 23.1 97 0.3 E 7 7 4 4 1013.8 1013.7 0.0
27/01:30am 23.0 26.5 22.2 95 0.5 SE 7 7 4 4 1013.7 1013.6 0.0
27/01:00am 23.8 27.8 23.1 96 0.5 ESE 7 9 4 5 1013.9 1013.8 0.0
27/12:30am 23.8 27.4 23.0 95 0.5 ESE 9 9 5 5 1014.0 1013.9 0.0
27/12:00am 24.3 28.0 23.3 94 0.7 ESE 9 9 5 5 1014.1 1014.0 0.0
 
Date/Time
EST
Temp
°C
App
Temp
°C
Dew
Point
Rel
Hum
%
Delta-T
°C
Wind Press
QNH
hPa
Press
MSL
hPa
Rain
since 9 am
mm
Dir
 
Spd
km/h
Gust
km/h
Spd
kts
Gust
kts
26/11:30pm 24.7 28.3 23.7 94 0.7 ESE 11 13 6 7 1014.4 1014.3 0.0
26/11:00pm 24.5 28.7 23.5 94 0.7 ESE 7 9 4 5 1014.5 1014.4 0.0
26/10:30pm 24.8 28.7 23.6 93 0.8 ESE 9 13 5 7 1014.5 1014.4 0.0
26/10:00pm 24.7 28.7 23.7 94 0.7 SE 9 13 5 7 1014.8 1014.7 0.0
26/09:30pm 24.5 28.1 23.1 92 0.9 SE 9 13 5 7 1014.7 1014.6 0.0
26/09:00pm 24.9 28.5 23.1 90 1.2 ESE 9 11 5 6 1014.6 1014.5 0.0
26/08:30pm 25.6 28.9 23.8 90 1.2 SE 13 17 7 9 1014.5 1014.4 0.0
26/08:00pm 25.5 28.7 23.7 90 1.2 SE 13 17 7 9 1014.4 1014.3 0.0
26/07:30pm 25.4 27.9 23.8 91 1.1 SSE 17 20 9 11 1014.1 1014.0 0.0
26/07:00pm 25.6 27.7 23.8 90 1.2 SSE 19 26 10 14 1013.6 1013.5 0.0
26/06:30pm 25.5 27.2 23.4 88 1.4 SSE 20 26 11 14 1013.4 1013.3 0.0
26/06:00pm 25.6 27.4 23.3 87 1.6 SSE 19 26 10 14 1013.2 1013.1 0.0
26/05:30pm 26.1 27.2 23.0 83 2.1 SSE 22 28 12 15 1013.2 1013.1 0.0
26/05:00pm 26.4 26.8 22.5 79 2.6 SSE 24 32 13 17 1013.3 1013.2 0.0
26/04:30pm 26.9 27.3 22.5 77 3.0 SSE 24 33 13 18 1013.1 1013.0 0.0
26/04:00pm 27.2 26.7 22.2 74 3.4 SSE 28 33 15 18 1013.1 1013.0 0.0
26/03:30pm 27.7 28.0 22.9 75 3.3 SSE 26 32 14 17 1013.2 1013.1 0.0
26/03:00pm 27.3 26.9 22.3 74 3.4 SSE 28 35 15 19 1013.4 1013.3 0.0
26/02:30pm 27.6 27.9 23.0 76 3.1 SSE 26 33 14 18 1013.5 1013.4 0.0
26/02:00pm 27.7 27.2 22.9 75 3.3 SSE 30 37 16 20 1013.7 1013.6 0.0
26/01:30pm 27.7 27.6 22.2 72 3.7 SSE 26 33 14 18 1014.0 1013.9 0.0
26/01:00pm 28.2 27.6 22.7 72 3.7 SSE 30 37 16 20 1014.5 1014.4 0.0
26/12:30pm 28.0 27.8 22.7 73 3.6 SSE 28 39 15 21 1015.0 1014.9 0.0
26/12:00pm 27.1 26.6 22.1 74 3.4 SSE 28 37 15 20 1015.4 1015.3 0.0
26/11:30am 27.6 26.5 22.5 74 3.5 SSE 32 39 17 21 1015.8 1015.7 0.0
26/11:00am 27.4 27.2 23.4 79 2.7 SSE 30 37 16 20 1016.1 1016.0 0.0
26/10:30am 27.0 27.5 23.9 83 2.1 SSE 28 37 15 20 1016.4 1016.3 0.0
26/10:00am 26.4 25.7 22.5 79 2.6 SSE 30 37 16 20 1016.3 1016.2 0.0
26/09:30am 27.3 27.8 23.3 79 2.7 SSE 26 35 14 19 1016.2 1016.1 0.0
26/09:00am 26.4 26.4 23.1 82 2.2 SSE 28 35 15 19 1016.0 1015.9 0.0
26/08:30am 26.0 26.4 23.1 84 2.0 SSE 26 32 14 17 1015.7 1015.6 0.0
26/08:00am 25.6 26.4 23.1 86 1.7 SSE 24 33 13 18 1015.2 1015.1 0.0
26/07:30am 25.3 26.5 23.2 88 1.4 SSE 22 30 12 16 1014.9 1014.8 0.0
26/07:00am 25.6 26.3 22.9 85 1.8 SSE 24 30 13 16 1014.5 1014.4 0.0
26/06:30am 25.5 26.0 22.6 84 2.0 SSE 24 30 13 16 1014.2 1014.1 0.0
26/06:00am 25.7 25.9 22.8 84 2.0 SSE 26 33 14 18 1013.8 1013.7 0.0
26/05:30am 25.5 26.0 22.6 84 2.0 SSE 24 30 13 16 1013.5 1013.4 0.0
26/05:00am 25.5 26.0 22.6 84 2.0 SSE 24 32 13 17 1013.4 1013.3 0.0
26/04:30am 25.3 25.7 22.4 84 1.9 SSE 24 30 13 16 1013.3 1013.2 0.0
26/04:00am 25.2 26.2 22.1 83 2.1 SSE 20 28 11 15 1013.3 1013.2 0.0
26/03:30am 25.3 25.6 22.2 83 2.1 SSE 24 33 13 18 1013.2 1013.1 0.0
26/03:00am 25.3 25.7 21.8 81 2.3 SSE 22 32 12 17 1013.5 1013.4 0.0
26/02:30am 25.6 26.1 21.9 80 2.5 SSE 22 30 12 16 1013.8 1013.7 0.0
26/02:00am 25.6 26.2 22.1 81 2.3 SE 22 32 12 17 1014.2 1014.1 0.0
26/01:30am 25.4 26.0 22.1 82 2.2 SSE 22 32 12 17 1014.4 1014.3 0.0
26/01:00am 25.4 26.1 22.3 83 2.1 SSE 22 30 12 16 1014.5 1014.4 0.0
26/12:30am 25.6 25.8 22.1 81 2.3 SE 24 33 13 18 1014.6 1014.5 0.0
26/12:00am 25.6 25.8 22.1 81 2.3 SE 24 33 13 18 1014.8 1014.7 0.0
 
Date/Time
EST
Temp
°C
App
Temp
°C
Dew
Point
Rel
Hum
%
Delta-T
°C
Wind Press
QNH
hPa
Press
MSL
hPa
Rain
since 9 am
mm
Dir
 
Spd
km/h
Gust
km/h
Spd
kts
Gust
kts
25/11:30pm 25.6 25.7 21.9 80 2.5 SE 24 32 13 17 1015.0 1014.9 0.0
25/11:00pm 25.6 25.6 21.7 79 2.6 SE 24 32 13 17 1015.0 1014.9 0.0
25/10:30pm 25.6 25.9 21.5 78 2.7 SE 22 30 12 16 1015.4 1015.3 0.0
25/10:00pm 25.6 25.9 21.5 78 2.7 SE 22 30 12 16 1015.4 1015.3 0.0
25/09:30pm 25.8 25.9 21.9 79 2.6 SE 24 33 13 18 1015.2 1015.1 0.0
25/09:00pm 26.1 26.0 21.5 76 3.1 SE 24 33 13 18 1015.1 1015.0 0.0
25/08:30pm 26.1 26.5 21.7 77 2.9 SE 22 30 12 16 1014.9 1014.8 0.0
25/08:00pm 25.9 25.9 21.6 77 2.9 SE 24 32 13 17 1014.6 1014.5 0.0
25/07:30pm 25.8 25.7 21.5 77 2.9 SE 24 35 13 19 1014.3 1014.2 0.0
25/07:00pm 25.9 26.1 22.0 79 2.6 SE 24 32 13 17 1014.1 1014.0 0.0
25/06:30pm 25.6 25.6 21.7 79 2.6 SE 24 35 13 19 1013.8 1013.7 0.0
25/06:00pm 25.7 26.0 22.2 81 2.3 SSE 24 35 13 19 1013.5 1013.4 0.0
25/05:30pm 25.6 26.2 22.1 81 2.3 SSE 22 32 12 17 1013.1 1013.0 0.0
25/05:00pm 26.0 25.5 22.1 79 2.6 SSE 28 35 15 19 1012.9 1012.8 0.0
25/04:30pm 25.8 25.6 22.7 83 2.1 SSE 28 39 15 21 1012.7 1012.6 0.0
25/04:00pm 26.0 25.5 22.9 83 2.1 SSE 30 39 16 21 1012.6 1012.5 0.0
25/03:30pm 26.5 26.1 23.0 81 2.4 SSE 30 39 16 21 1012.5 1012.4 0.0
25/03:00pm 27.4 27.3 23.6 80 2.6 SSE 30 39 16 21 1012.7 1012.6 0.0
25/02:30pm 27.1 27.2 23.3 80 2.6 SSE 28 37 15 20 1012.9 1012.8 0.0
25/02:00pm 27.9 28.8 23.3 76 3.1 SE 24 32 13 17 1013.1 1013.0 0.0
25/01:30pm 28.0 28.4 23.2 75 3.3 SE 26 30 14 16 1013.4 1013.3 0.0
25/01:00pm 27.8 29.3 23.0 75 3.3 SE 20 30 11 16 1014.0 1013.9 0.0
25/12:30pm 28.6 30.6 23.9 75 3.2 SE 20 28 11 15 1014.3 1014.2 0.0
25/12:00pm 28.3 29.1 23.2 74 3.5 SE 24 32 13 17 1014.6 1014.5 0.0
25/11:30am 28.2 28.9 22.9 73 3.6 SE 24 32 13 17 1014.6 1014.5 0.0
25/11:00am 28.5 29.7 23.2 73 3.6 SE 22 32 12 17 1014.8 1014.7 0.0
25/10:30am 27.8 28.4 23.4 77 3.0 SE 26 35 14 19 1014.8 1014.7 0.0
25/10:00am 26.9 28.9 24.0 84 2.0 SE 20 30 11 16 1014.6 1014.5 0.0
25/09:30am 27.1 28.3 23.8 82 2.3 SE 24 30 13 16 1015.0 1014.9 0.0
25/09:00am 27.1 28.5 23.6 81 2.4 SE 22 32 12 17 1015.1 1015.0 0.0
25/08:30am 26.2 28.3 23.7 86 1.7 SE 19 24 10 13 1015.0 1014.9 0.0
25/08:00am 25.4 27.1 23.1 87 1.6 ESE 19 28 10 15 1014.8 1014.7 0.0
25/07:30am 24.7 26.2 23.1 91 1.1 ESE 20 28 11 15 1014.5 1014.4 0.0
25/07:00am 24.0 25.4 22.8 93 0.8 ESE 20 28 11 15 1014.4 1014.3 0.0
25/06:30am 24.4 26.0 22.8 91 1.1 E 19 28 10 15 1014.4 1014.3 0.0
25/06:00am 24.1 25.4 22.7 92 0.9 ESE 20 30 11 16 1014.0 1013.9 0.0
25/05:30am 25.0 26.1 22.3 85 1.8 SE 20 32 11 17 1013.7 1013.6 0.0
25/05:00am 25.6 25.2 21.7 79 2.6 SE 26 35 14 19 1013.1 1013.0 0.0
25/04:30am 25.8 25.3 21.5 77 2.9 SSE 26 33 14 18 1013.6 1013.5 0.0
25/04:00am 25.8 24.8 21.2 76 3.0 SE 28 37 15 20 1013.4 1013.3 0.0
25/03:30am 25.7 25.2 21.4 77 2.9 SE 26 39 14 21 1013.4 1013.3 0.0
25/03:00am 25.7 25.2 21.4 77 2.9 SE 26 37 14 20 1013.5 1013.4 0.0
25/02:30am 25.8 25.0 21.7 78 2.7 SE 28 35 15 19 1013.8 1013.7 0.0
25/02:00am 25.9 25.6 21.8 78 2.7 SE 26 35 14 19 1014.2 1014.1 0.0
25/01:30am 26.0 24.6 21.9 78 2.7 SE 32 39 17 21 1014.6 1014.5 0.0
25/01:00am 25.4 24.8 22.7 85 1.8 SE 30 41 16 22 1014.8 1014.7 0.0
25/12:30am 25.2 24.1 22.5 85 1.8 SE 32 41 17 22 1014.9 1014.8 0.0
25/12:00am 25.8 24.9 22.1 80 2.5 SE 30 43 16 23 1014.9 1014.8 0.0
 
Date/Time
EST
Temp
°C
App
Temp
°C
Dew
Point
Rel
Hum
%
Delta-T
°C
Wind Press
QNH
hPa
Press
MSL
hPa
Rain
since 9 am
mm
Dir
 
Spd
km/h
Gust
km/h
Spd
kts
Gust
kts
24/11:30pm 26.1 25.7 22.4 80 2.5 SE 28 35 15 19 1015.1 1015.0 0.0
24/11:00pm 26.1 25.7 22.4 80 2.5 SE 28 37 15 20 1015.3 1015.2 0.0
24/10:30pm 25.9 25.3 22.6 82 2.2 SE 30 41 16 22 1015.4 1015.3 0.0
24/10:00pm 26.2 26.5 22.3 79 2.6 SE 24 32 13 17 1015.4 1015.3 0.0
24/09:30pm 26.2 25.7 22.1 78 2.7 SE 28 37 15 20 1015.0 1014.9 0.0
24/09:00pm 26.1 25.9 22.0 78 2.7 SE 26 33 14 18 1014.8 1014.7 0.0
24/08:30pm 26.0 26.5 21.9 78 2.7 SE 22 32 12 17 1014.9 1014.8 0.0
24/08:00pm 26.2 26.3 21.8 77 2.9 SE 24 32 13 17 1014.8 1014.7 0.0
24/07:30pm 26.2 26.4 22.1 78 2.7 SE 24 39 13 21 1014.3 1014.2 0.0
24/07:00pm 26.2 25.9 21.8 77 2.9 SE 26 39 14 21 1013.7 1013.6 0.0
24/06:30pm 26.1 26.4 22.2 79 2.6 SE 24 35 13 19 1013.5 1013.4 0.0
24/06:00pm 26.2 25.9 21.8 77 2.9 SE 26 35 14 19 1013.3 1013.2 0.0
24/05:30pm 26.3 25.9 21.7 76 3.1 SE 26 35 14 19 1013.4 1013.3 0.0
24/05:00pm 26.3 25.8 21.5 75 3.2 SE 26 35 14 19 1012.9 1012.8 0.0

Other Formats:

Comma delimited format used in spreadsheet applications
http://www.bom.gov.au/fwo/IDQ60801/IDQ60801.94188.axf

JavaScript Object Notation format (JSON) in row-major order
http://www.bom.gov.au/fwo/IDQ60801/IDQ60801.94188.json